Aérodrome :
LOGIN :

S'inscrire | Disclaimer

   EN    FR    IT 

 










Légende :    VFR   VFR Marginal   IFR   IFR Intensif   IFR Très Intensif
Visi : 
Plafond : 
>= 8 km
>= 3000ft
5 à 8 km
1000 à 3000 ft
1500m à 5 km
500 à 1000 ft
800 à 1500m
200 à 500 ft
< 800m
< 200 ft
Symboles :   Orages  Brouillard  Fortes neiges  Fortes précipitations  Vent > 20 kt
SIGMETs :   Divers  Orages  Givrage  Turbulence  Onde Orograph.  Cendres Volcan.






- Altitude de l'aérodrome : 779 ft
- Code IATA : CMF


LFLB - Chambery / Aix-Les-Bains

DERNIER METAR :
  • 031930Z AUTO 36005KT 320V040 9999 -RA BKN052/// BKN062/// BKN074/// ///CB 18/14 Q1005

METARs EXPIRÉS :
  • 031900Z AUTO 22004KT 9999 -RA FEW054/// OVC088/// ///CB 18/14 Q1005 TEMPO VRB20G35KT 4000 SHRA
  • 031830Z AUTO 22006KT 190V260 9999 FEW047/// BKN092/// BKN110/// ///CB 18/14 Q1004 TEMPO VRB20G35KT 4000 SHRA
  • 031800Z AUTO VRB03KT 9999 TS BKN062/// BKN076/// BKN088/// ///CB 18/15 Q1005 TEMPO VRB20G35KT 2000 TSRA
  • 031730Z AUTO VRB03KT 9999 -RA FEW056/// OVC096/// ///CB 19/15 Q1005 TEMPO VRB20G35KT 2000 TSRA
  • 031700Z AUTO VRB02KT 9999 -RA VCTS ///CB 19/15 Q1004 TEMPO VRB20G35KT 2000 TSRA
  • 031630Z AUTO 18004KT 100V240 9999 -TSRA FEW037/// BKN056/// BKN068/// ///CB 20/14 Q1004 TEMPO VRB20G35KT 4000 SHRA

TAF AMD TAF LFLB
Valide du 03 à 16h jusqu'au 04 à 12h UTC


031606Z 0316/0412 18011KT 9999 FEW060 BKN080
TEMPO 0316/0409 4000 SHRA BKN050TCU
PROB40
TEMPO 0316/0320 VRB20G35KT 2000 TSRA SCT010 BKN045CB
PROB40
TEMPO 0400/0408 1500 BKN009 FEW040CB
PROB30
TEMPO 0409/0412 -SHRA SCT040TCU



MET'MAP, la Météo Aéronautique d'un coup d'oeil ! - Copyright ORBIFLY Décembre 2007 - Disclaimer

ORBIFLY MET'MAP TEAM :

Programmation & Développement : Alexandra Zaïnal
Sur une idée originale de : Baudouin d'Aumeries
Assistance à la programmation : Marc-Olivier Méhu
Soutien technique & logistique : Manuel Goepfert

Contact : metmap@orbifly.com




SOURCES & CREDITS :

   NOAA